createdAt,value
2022-08-28T00:03:30.392Z,19.76
2022-08-28T00:08:37.221Z,19.74
2022-08-28T00:13:44.883Z,19.68
2022-08-28T00:19:10.931Z,19.79
2022-08-28T00:24:16.901Z,19.71
2022-08-28T00:29:22.823Z,19.64
2022-08-28T00:34:33.297Z,19.63
2022-08-28T00:39:41.181Z,19.64
2022-08-28T00:45:07.729Z,19.48
2022-08-28T00:50:18.916Z,19.57
2022-08-28T00:55:28.288Z,19.55
2022-08-28T01:00:38.361Z,19.65
2022-08-28T01:06:01.601Z,19.57
2022-08-28T01:11:08.975Z,19.54
2022-08-28T01:16:15.368Z,19.77
2022-08-28T01:22:17.394Z,19.56
2022-08-28T01:27:23.508Z,19.13
2022-08-28T01:32:44.106Z,19.25
2022-08-28T01:37:49.251Z,19.30
2022-08-28T01:42:54.275Z,19.46
2022-08-28T01:48:02.403Z,19.54
2022-08-28T01:53:33.078Z,19.65
2022-08-28T01:58:38.556Z,19.69
2022-08-28T02:03:44.092Z,19.66
2022-08-28T02:08:49.490Z,19.53
2022-08-28T02:13:56.395Z,19.47
2022-08-28T02:19:20.443Z,19.74
2022-08-28T02:24:26.621Z,19.84
2022-08-28T02:29:30.584Z,19.96
2022-08-28T02:34:36.715Z,19.91
2022-08-28T02:39:43.241Z,20.17
2022-08-28T02:44:48.762Z,20.33
2022-08-28T02:49:54.011Z,20.30
2022-08-28T02:54:57.791Z,20.32
2022-08-28T03:00:02.679Z,20.09
2022-08-28T03:05:26.513Z,20.28
2022-08-28T03:10:33.622Z,20.38
2022-08-28T03:15:38.463Z,20.37
2022-08-28T03:20:43.259Z,20.37
2022-08-28T03:25:46.645Z,20.19
2022-08-28T03:30:51.642Z,20.12
2022-08-28T03:35:56.163Z,20.40
2022-08-28T03:40:59.790Z,20.29
2022-08-28T03:46:06.228Z,20.27
2022-08-28T03:51:12.299Z,20.20
2022-08-28T03:56:18.040Z,20.27
2022-08-28T04:01:21.641Z,19.99
2022-08-28T04:06:25.045Z,20.10
2022-08-28T04:11:46.262Z,20.17
2022-08-28T04:16:50.599Z,20.22
2022-08-28T04:21:54.728Z,20.09
2022-08-28T04:27:00.083Z,20.21
2022-08-28T04:32:05.577Z,20.07
2022-08-28T04:37:09.573Z,20.12
2022-08-28T04:42:14.263Z,20.02
2022-08-28T04:47:38.975Z,20.02
2022-08-28T04:53:01.982Z,19.82
2022-08-28T04:58:06.077Z,19.98
2022-08-28T05:03:12.125Z,20.15
2022-08-28T05:08:18.403Z,20.11
2022-08-28T05:13:41.203Z,20.18
2022-08-28T05:18:45.964Z,20.52
2022-08-28T05:23:52.223Z,20.53
2022-08-28T05:28:56.901Z,20.46
2022-08-28T05:34:05.161Z,20.55
2022-08-28T05:39:13.244Z,21.00
2022-08-28T05:44:20.823Z,20.96
2022-08-28T05:49:44.763Z,20.85
2022-08-28T05:54:53.266Z,20.74
2022-08-28T06:00:02.503Z,20.86
2022-08-28T06:05:08.477Z,20.47
2022-08-28T06:10:18.602Z,20.91
2022-08-28T06:15:45.953Z,21.06
2022-08-28T06:20:49.180Z,21.19
2022-08-28T06:25:53.642Z,21.31
2022-08-28T06:31:23.964Z,21.09
2022-08-28T06:36:51.797Z,21.18
2022-08-28T06:41:57.646Z,21.22
2022-08-28T06:47:01.607Z,21.47
2022-08-28T06:52:25.350Z,21.47
2022-08-28T07:02:33.194Z,21.41
2022-08-28T07:07:53.902Z,21.56
2022-08-28T07:12:56.475Z,22.25
2022-08-28T07:17:58.822Z,22.11
2022-08-28T07:23:01.323Z,21.94
2022-08-28T07:28:03.902Z,22.03
2022-08-28T07:33:24.772Z,22.17
2022-08-28T07:38:27.265Z,22.09
2022-08-28T07:43:30.303Z,21.79
2022-08-28T07:48:33.107Z,21.74
2022-08-28T07:53:36.829Z,22.02
2022-08-28T07:58:59.482Z,22.54
2022-08-28T08:04:02.201Z,22.54
2022-08-28T08:09:22.922Z,22.45
2022-08-28T08:14:25.570Z,22.29
2022-08-28T08:19:46.223Z,22.55
2022-08-28T08:24:48.442Z,22.46
2022-08-28T08:29:50.892Z,22.40
2022-08-28T08:34:55.971Z,22.66
2022-08-28T08:40:16.777Z,23.12
2022-08-28T08:45:40.372Z,23.55
2022-08-28T08:50:42.851Z,24.29
2022-08-28T08:55:54.702Z,24.18
2022-08-28T09:01:17.506Z,24.20
2022-08-28T09:06:57.062Z,24.28
2022-08-28T09:12:03.382Z,23.97
2022-08-28T09:17:31.912Z,24.44
2022-08-28T09:22:52.825Z,24.94
2022-08-28T09:27:55.484Z,24.61
2022-08-28T09:32:59.964Z,24.12
2022-08-28T09:38:27.688Z,24.34
2022-08-28T09:43:48.463Z,24.50
2022-08-28T09:48:51.964Z,24.50
2022-08-28T09:53:54.163Z,24.47
2022-08-28T09:59:16.498Z,24.96
2022-08-28T10:04:56.444Z,24.66
2022-08-28T10:10:21.363Z,24.84
2022-08-28T10:15:44.246Z,24.96
2022-08-28T10:21:53.464Z,24.93
2022-08-28T10:27:38.552Z,24.90
2022-08-28T10:33:05.250Z,24.42
2022-08-28T10:38:12.891Z,24.47
2022-08-28T10:43:57.382Z,24.92
2022-08-28T10:49:04.375Z,24.72
2022-08-28T10:54:47.702Z,24.54
2022-08-28T11:00:18.564Z,24.82
2022-08-28T11:05:29.503Z,25.34
2022-08-28T11:10:35.343Z,25.42
2022-08-28T11:15:56.202Z,26.39
2022-08-28T11:21:35.407Z,26.02
2022-08-28T11:26:49.383Z,26.23
2022-08-28T11:32:33.504Z,25.35
2022-08-28T11:37:43.043Z,25.18
2022-08-28T11:42:47.983Z,25.65
2022-08-28T11:48:29.578Z,26.26
2022-08-28T11:53:56.584Z,27.99
2022-08-28T11:59:40.278Z,26.81
2022-08-28T12:05:01.560Z,26.72
2022-08-28T12:10:27.644Z,26.85
2022-08-28T12:16:04.884Z,27.13
2022-08-28T12:21:29.003Z,27.96
2022-08-28T12:26:57.120Z,28.63
2022-08-28T12:32:20.524Z,27.76
2022-08-28T12:37:39.614Z,27.57
2022-08-28T12:43:09.839Z,28.54
2022-08-28T12:48:22.603Z,27.41
2022-08-28T12:53:47.663Z,28.11
2022-08-28T12:59:36.862Z,27.78
2022-08-28T13:05:04.262Z,28.47
2022-08-28T13:10:25.344Z,28.85
2022-08-28T13:15:51.783Z,27.67
2022-08-28T13:21:33.607Z,27.38
2022-08-28T13:26:37.762Z,28.29
2022-08-28T13:31:40.857Z,29.11
2022-08-28T13:37:07.242Z,30.05
2022-08-28T13:42:22.420Z,28.83
2022-08-28T13:47:24.772Z,29.58
2022-08-28T13:52:27.282Z,29.30
2022-08-28T13:57:29.730Z,29.39
2022-08-28T14:02:33.498Z,30.27
2022-08-28T14:07:36.004Z,29.00
2022-08-28T14:12:39.063Z,28.96
2022-08-28T14:18:01.123Z,29.44
2022-08-28T14:23:03.323Z,29.56
2022-08-28T14:28:06.250Z,29.58
2022-08-28T14:33:08.523Z,29.47
2022-08-28T14:38:11.422Z,29.65
2022-08-28T14:43:14.997Z,29.16
2022-08-28T14:48:19.142Z,29.04
2022-08-28T14:53:21.443Z,28.89
2022-08-28T14:58:24.053Z,29.26
2022-08-28T15:03:27.566Z,29.59
2022-08-28T15:08:30.228Z,29.14
2022-08-28T15:13:54.241Z,29.32
2022-08-28T15:19:17.302Z,30.01
2022-08-28T15:24:37.974Z,29.17
2022-08-28T15:29:40.343Z,28.67
2022-08-28T15:35:01.035Z,28.25
2022-08-28T15:40:03.917Z,28.61
2022-08-28T15:45:06.988Z,29.01
2022-08-28T15:50:11.296Z,28.45
2022-08-28T15:55:32.782Z,28.83
2022-08-28T16:00:35.203Z,28.86
2022-08-28T16:05:56.225Z,28.99
2022-08-28T16:10:58.984Z,28.63
2022-08-28T16:16:02.658Z,28.43
2022-08-28T16:21:05.411Z,28.07
2022-08-28T16:26:09.091Z,28.14
2022-08-28T16:31:30.342Z,27.88
2022-08-28T16:36:51.290Z,27.56
2022-08-28T16:42:12.187Z,27.49
2022-08-28T16:47:15.181Z,27.71
2022-08-28T16:52:17.825Z,27.77
2022-08-28T16:57:39.283Z,27.79
2022-08-28T17:02:42.951Z,27.40
2022-08-28T17:07:46.724Z,27.27
2022-08-28T17:13:07.464Z,27.31
2022-08-28T17:18:10.684Z,27.38
2022-08-28T17:23:13.984Z,27.05
2022-08-28T17:28:16.235Z,26.93
2022-08-28T17:33:19.063Z,26.81
2022-08-28T17:38:40.342Z,26.75
2022-08-28T17:43:44.178Z,26.75
2022-08-28T17:49:08.678Z,26.62
2022-08-28T17:54:19.096Z,26.40
2022-08-28T17:59:24.204Z,26.49
2022-08-28T18:04:27.921Z,26.47
2022-08-28T18:09:33.582Z,26.41
2022-08-28T18:14:39.523Z,26.38
2022-08-28T18:20:03.884Z,25.97
2022-08-28T18:25:27.491Z,25.84
2022-08-28T18:30:32.942Z,25.57
2022-08-28T18:35:44.079Z,25.21
2022-08-28T18:41:09.323Z,24.96
2022-08-28T18:46:14.854Z,24.65
2022-08-28T18:51:21.603Z,24.31
2022-08-28T18:56:30.318Z,24.49
2022-08-28T19:01:38.976Z,24.20
2022-08-28T19:06:46.684Z,23.91
2022-08-28T19:11:53.563Z,23.84
2022-08-28T19:17:21.110Z,23.58
2022-08-28T19:22:25.131Z,23.53
2022-08-28T19:27:32.302Z,23.35
2022-08-28T19:32:35.203Z,23.74
2022-08-28T19:37:42.077Z,24.04
2022-08-28T19:42:44.773Z,23.98
2022-08-28T19:47:47.366Z,23.32
2022-08-28T19:52:49.507Z,23.46
2022-08-28T19:57:52.203Z,23.39
2022-08-28T20:03:12.885Z,23.65
2022-08-28T20:08:19.625Z,23.47
2022-08-28T20:13:21.986Z,23.16
2022-08-28T20:18:42.764Z,23.51
2022-08-28T20:23:45.342Z,23.51
2022-08-28T20:28:48.027Z,23.54
2022-08-28T20:34:11.234Z,24.33
2022-08-28T20:39:14.566Z,24.17
2022-08-28T20:44:35.782Z,23.98
2022-08-28T20:49:56.423Z,23.13
2022-08-28T20:54:58.621Z,22.53
2022-08-28T21:00:05.346Z,22.29
2022-08-28T21:05:08.588Z,22.14
2022-08-28T21:10:29.563Z,22.10
2022-08-28T21:15:31.825Z,22.39
2022-08-28T21:20:34.371Z,22.43
2022-08-28T21:25:55.284Z,22.40
2022-08-28T21:30:57.420Z,22.46
2022-08-28T21:35:59.603Z,22.33
2022-08-28T21:41:20.483Z,22.45
2022-08-28T21:46:23.225Z,22.43
2022-08-28T21:51:43.983Z,22.47
2022-08-28T21:56:46.224Z,22.04
2022-08-28T22:01:48.465Z,21.87
2022-08-28T22:07:09.383Z,21.80
2022-08-28T22:12:31.080Z,21.33
2022-08-28T22:17:35.222Z,21.73
2022-08-28T22:22:55.962Z,21.51
2022-08-28T22:27:58.563Z,21.47
2022-08-28T22:33:19.264Z,21.43
2022-08-28T22:38:22.951Z,21.32
2022-08-28T22:43:25.343Z,21.18
2022-08-28T22:48:45.812Z,21.25
2022-08-28T22:54:06.703Z,20.94
2022-08-28T22:59:10.103Z,20.75
2022-08-28T23:04:30.882Z,20.71
2022-08-28T23:09:32.942Z,20.44
2022-08-28T23:14:56.543Z,20.13
2022-08-28T23:19:58.775Z,20.27
2022-08-28T23:25:01.105Z,20.20
2022-08-28T23:30:23.523Z,20.46
2022-08-28T23:35:26.265Z,20.52
2022-08-28T23:40:28.411Z,20.38
2022-08-28T23:45:32.341Z,20.28
2022-08-28T23:50:53.622Z,20.43
2022-08-28T23:56:14.384Z,20.32
